sensor_id;sensor_type;location;lat;lon;timestamp;temperature;humidity
75155;HTU21D;63735;44.730;37.818;2022-12-31T00:01:22;11.71;81.38
75155;HTU21D;63735;44.730;37.818;2022-12-31T00:03:49;11.71;81.28
75155;HTU21D;63735;44.730;37.818;2022-12-31T00:06:29;11.72;81.17
75155;HTU21D;63735;44.730;37.818;2022-12-31T00:08:56;11.72;81.08
75155;HTU21D;63735;44.730;37.818;2022-12-31T00:11:24;11.72;81.06
75155;HTU21D;63735;44.730;37.818;2022-12-31T00:13:51;11.73;81.01
75155;HTU21D;63735;44.730;37.818;2022-12-31T00:16:23;11.73;81.03
75155;HTU21D;63735;44.730;37.818;2022-12-31T00:18:52;11.74;80.98
75155;HTU21D;63735;44.730;37.818;2022-12-31T00:21:23;11.73;81.03
75155;HTU21D;63735;44.730;37.818;2022-12-31T00:23:51;11.73;81.05
75155;HTU21D;63735;44.730;37.818;2022-12-31T00:26:19;11.73;80.98
75155;HTU21D;63735;44.730;37.818;2022-12-31T00:28:50;11.75;80.95
75155;HTU21D;63735;44.730;37.818;2022-12-31T00:31:22;11.75;80.88
75155;HTU21D;63735;44.730;37.818;2022-12-31T00:33:48;11.75;80.91
75155;HTU21D;63735;44.730;37.818;2022-12-31T00:36:17;11.75;80.88
75155;HTU21D;63735;44.730;37.818;2022-12-31T00:38:46;11.75;80.91
75155;HTU21D;63735;44.730;37.818;2022-12-31T00:41:13;11.77;80.85
75155;HTU21D;63735;44.730;37.818;2022-12-31T00:43:40;11.77;80.91
75155;HTU21D;63735;44.730;37.818;2022-12-31T00:46:06;11.77;80.98
75155;HTU21D;63735;44.730;37.818;2022-12-31T00:48:33;11.77;81.01
75155;HTU21D;63735;44.730;37.818;2022-12-31T00:51:00;11.76;81.12
75155;HTU21D;63735;44.730;37.818;2022-12-31T00:53:27;11.78;81.01
75155;HTU21D;63735;44.730;37.818;2022-12-31T00:55:59;11.77;81.01
75155;HTU21D;63735;44.730;37.818;2022-12-31T00:58:26;11.77;81.11
75155;HTU21D;63735;44.730;37.818;2022-12-31T01:00:52;11.78;81.01
75155;HTU21D;63735;44.730;37.818;2022-12-31T01:03:18;11.78;80.86
75155;HTU21D;63735;44.730;37.818;2022-12-31T01:05:44;11.78;80.82
75155;HTU21D;63735;44.730;37.818;2022-12-31T01:08:10;11.82;80.74
75155;HTU21D;63735;44.730;37.818;2022-12-31T01:10:36;11.83;80.63
75155;HTU21D;63735;44.730;37.818;2022-12-31T01:13:20;11.83;80.62
75155;HTU21D;63735;44.730;37.818;2022-12-31T01:15:46;11.83;80.65
75155;HTU21D;63735;44.730;37.818;2022-12-31T01:18:12;11.84;80.67
75155;HTU21D;63735;44.730;37.818;2022-12-31T01:20:41;11.82;80.75
75155;HTU21D;63735;44.730;37.818;2022-12-31T01:23:07;11.83;80.83
75155;HTU21D;63735;44.730;37.818;2022-12-31T01:25:37;11.84;80.85
75155;HTU21D;63735;44.730;37.818;2022-12-31T01:28:05;11.85;80.91
75155;HTU21D;63735;44.730;37.818;2022-12-31T01:30:31;11.86;80.88
75155;HTU21D;63735;44.730;37.818;2022-12-31T01:32:57;11.85;81.04
75155;HTU21D;63735;44.730;37.818;2022-12-31T01:35:23;11.85;81.11
75155;HTU21D;63735;44.730;37.818;2022-12-31T01:37:50;11.86;81.17
75155;HTU21D;63735;44.730;37.818;2022-12-31T01:40:16;11.86;81.27
75155;HTU21D;63735;44.730;37.818;2022-12-31T01:42:42;11.86;81.24
75155;HTU21D;63735;44.730;37.818;2022-12-31T01:45:12;11.86;81.38
75155;HTU21D;63735;44.730;37.818;2022-12-31T01:47:42;11.85;81.36
75155;HTU21D;63735;44.730;37.818;2022-12-31T01:50:17;11.86;81.48
75155;HTU21D;63735;44.730;37.818;2022-12-31T01:52:47;11.86;81.64
75155;HTU21D;63735;44.730;37.818;2022-12-31T01:55:30;11.85;81.60
75155;HTU21D;63735;44.730;37.818;2022-12-31T01:58:03;11.86;81.59
75155;HTU21D;63735;44.730;37.818;2022-12-31T02:00:31;11.85;81.68
75155;HTU21D;63735;44.730;37.818;2022-12-31T02:02:57;11.86;81.72
75155;HTU21D;63735;44.730;37.818;2022-12-31T02:07:57;11.85;81.68
75155;HTU21D;63735;44.730;37.818;2022-12-31T02:10:23;11.86;81.65
75155;HTU21D;63735;44.730;37.818;2022-12-31T02:12:49;11.86;81.67
75155;HTU21D;63735;44.730;37.818;2022-12-31T02:15:19;11.85;82.04
75155;HTU21D;63735;44.730;37.818;2022-12-31T02:23:41;11.83;81.92
75155;HTU21D;63735;44.730;37.818;2022-12-31T02:31:51;11.81;82.23
75155;HTU21D;63735;44.730;37.818;2022-12-31T02:34:33;11.81;82.23
75155;HTU21D;63735;44.730;37.818;2022-12-31T02:37:04;11.82;82.26
75155;HTU21D;63735;44.730;37.818;2022-12-31T02:39:33;11.82;82.23
75155;HTU21D;63735;44.730;37.818;2022-12-31T02:42:00;11.83;82.16
75155;HTU21D;63735;44.730;37.818;2022-12-31T02:44:34;11.84;82.17
75155;HTU21D;63735;44.730;37.818;2022-12-31T02:49:43;11.85;82.17
75155;HTU21D;63735;44.730;37.818;2022-12-31T02:52:21;11.84;82.25
75155;HTU21D;63735;44.730;37.818;2022-12-31T02:55:10;11.84;82.24
75155;HTU21D;63735;44.730;37.818;2022-12-31T03:00:19;11.85;82.52
75155;HTU21D;63735;44.730;37.818;2022-12-31T03:03:04;11.85;82.71
75155;HTU21D;63735;44.730;37.818;2022-12-31T03:05:32;11.86;82.80
75155;HTU21D;63735;44.730;37.818;2022-12-31T03:07:59;11.83;83.10
75155;HTU21D;63735;44.730;37.818;2022-12-31T03:10:25;11.84;83.09
75155;HTU21D;63735;44.730;37.818;2022-12-31T03:12:51;11.85;83.00
75155;HTU21D;63735;44.730;37.818;2022-12-31T03:15:22;11.85;83.10
75155;HTU21D;63735;44.730;37.818;2022-12-31T03:17:56;11.85;83.36
75155;HTU21D;63735;44.730;37.818;2022-12-31T03:20:26;11.87;83.31
75155;HTU21D;63735;44.730;37.818;2022-12-31T03:23:12;11.91;83.20
75155;HTU21D;63735;44.730;37.818;2022-12-31T03:25:38;11.90;83.32
75155;HTU21D;63735;44.730;37.818;2022-12-31T03:28:08;11.89;83.36
75155;HTU21D;63735;44.730;37.818;2022-12-31T03:30:36;11.90;83.50
75155;HTU21D;63735;44.730;37.818;2022-12-31T03:33:03;11.94;83.53
75155;HTU21D;63735;44.730;37.818;2022-12-31T03:35:32;11.92;83.47
75155;HTU21D;63735;44.730;37.818;2022-12-31T03:37:58;11.93;83.67
75155;HTU21D;63735;44.730;37.818;2022-12-31T03:40:26;11.93;83.54
75155;HTU21D;63735;44.730;37.818;2022-12-31T03:42:53;11.97;83.39
75155;HTU21D;63735;44.730;37.818;2022-12-31T03:45:19;11.99;83.26
75155;HTU21D;63735;44.730;37.818;2022-12-31T03:47:46;11.99;83.13
75155;HTU21D;63735;44.730;37.818;2022-12-31T03:50:13;12.00;83.10
75155;HTU21D;63735;44.730;37.818;2022-12-31T03:52:40;11.99;83.04
75155;HTU21D;63735;44.730;37.818;2022-12-31T03:55:07;11.96;82.95
75155;HTU21D;63735;44.730;37.818;2022-12-31T03:57:33;11.93;83.04
75155;HTU21D;63735;44.730;37.818;2022-12-31T03:59:59;11.94;83.07
75155;HTU21D;63735;44.730;37.818;2022-12-31T04:02:25;11.94;83.04
75155;HTU21D;63735;44.730;37.818;2022-12-31T04:04:51;11.94;83.05
75155;HTU21D;63735;44.730;37.818;2022-12-31T04:07:17;11.93;83.02
75155;HTU21D;63735;44.730;37.818;2022-12-31T04:09:43;11.93;83.07
75155;HTU21D;63735;44.730;37.818;2022-12-31T04:12:09;11.94;83.03
75155;HTU21D;63735;44.730;37.818;2022-12-31T04:14:35;11.94;83.00
75155;HTU21D;63735;44.730;37.818;2022-12-31T04:17:01;11.93;83.04
75155;HTU21D;63735;44.730;37.818;2022-12-31T04:19:27;11.92;83.15
75155;HTU21D;63735;44.730;37.818;2022-12-31T04:21:53;11.90;83.39
75155;HTU21D;63735;44.730;37.818;2022-12-31T04:24:19;11.90;83.50
75155;HTU21D;63735;44.730;37.818;2022-12-31T04:26:45;11.89;83.55
75155;HTU21D;63735;44.730;37.818;2022-12-31T04:29:11;11.86;83.60
75155;HTU21D;63735;44.730;37.818;2022-12-31T04:31:37;11.84;83.68
75155;HTU21D;63735;44.730;37.818;2022-12-31T04:34:03;11.84;83.71
75155;HTU21D;63735;44.730;37.818;2022-12-31T04:36:29;11.82;83.71
75155;HTU21D;63735;44.730;37.818;2022-12-31T04:38:55;11.79;83.96
75155;HTU21D;63735;44.730;37.818;2022-12-31T04:41:21;11.77;84.03
75155;HTU21D;63735;44.730;37.818;2022-12-31T04:43:50;11.76;84.10
75155;HTU21D;63735;44.730;37.818;2022-12-31T04:46:17;11.75;84.02
75155;HTU21D;63735;44.730;37.818;2022-12-31T04:48:43;11.74;83.88
75155;HTU21D;63735;44.730;37.818;2022-12-31T04:51:09;11.74;83.82
75155;HTU21D;63735;44.730;37.818;2022-12-31T04:53:35;11.73;83.78
75155;HTU21D;63735;44.730;37.818;2022-12-31T04:56:02;11.71;83.67
75155;HTU21D;63735;44.730;37.818;2022-12-31T04:58:28;11.72;83.55
75155;HTU21D;63735;44.730;37.818;2022-12-31T05:00:55;11.72;83.46
75155;HTU21D;63735;44.730;37.818;2022-12-31T05:03:22;11.72;83.45
75155;HTU21D;63735;44.730;37.818;2022-12-31T05:05:49;11.72;83.42
75155;HTU21D;63735;44.730;37.818;2022-12-31T05:08:16;11.71;83.37
75155;HTU21D;63735;44.730;37.818;2022-12-31T05:10:45;11.70;83.30
75155;HTU21D;63735;44.730;37.818;2022-12-31T05:13:12;11.71;83.22
75155;HTU21D;63735;44.730;37.818;2022-12-31T05:15:38;11.72;83.11
75155;HTU21D;63735;44.730;37.818;2022-12-31T05:18:05;11.69;83.15
75155;HTU21D;63735;44.730;37.818;2022-12-31T05:20:31;11.70;83.11
75155;HTU21D;63735;44.730;37.818;2022-12-31T05:22:57;11.68;83.21
75155;HTU21D;63735;44.730;37.818;2022-12-31T05:25:24;11.69;83.20
75155;HTU21D;63735;44.730;37.818;2022-12-31T05:27:49;11.69;83.16
75155;HTU21D;63735;44.730;37.818;2022-12-31T05:30:15;11.67;83.20
75155;HTU21D;63735;44.730;37.818;2022-12-31T05:32:43;11.68;83.10
75155;HTU21D;63735;44.730;37.818;2022-12-31T05:35:10;11.68;83.04
75155;HTU21D;63735;44.730;37.818;2022-12-31T05:37:36;11.68;82.97
75155;HTU21D;63735;44.730;37.818;2022-12-31T05:40:02;11.70;82.87
75155;HTU21D;63735;44.730;37.818;2022-12-31T05:42:28;11.69;82.82
75155;HTU21D;63735;44.730;37.818;2022-12-31T05:44:54;11.69;82.75
75155;HTU21D;63735;44.730;37.818;2022-12-31T05:47:20;11.70;82.67
75155;HTU21D;63735;44.730;37.818;2022-12-31T05:49:46;11.71;82.58
75155;HTU21D;63735;44.730;37.818;2022-12-31T05:52:12;11.69;82.54
75155;HTU21D;63735;44.730;37.818;2022-12-31T05:54:38;11.70;82.55
75155;HTU21D;63735;44.730;37.818;2022-12-31T05:57:05;11.69;82.52
75155;HTU21D;63735;44.730;37.818;2022-12-31T05:59:31;11.68;82.52
75155;HTU21D;63735;44.730;37.818;2022-12-31T06:01:57;11.69;82.54
75155;HTU21D;63735;44.730;37.818;2022-12-31T06:04:23;11.70;82.54
75155;HTU21D;63735;44.730;37.818;2022-12-31T06:06:49;11.71;82.46
75155;HTU21D;63735;44.730;37.818;2022-12-31T06:09:16;11.70;82.38
75155;HTU21D;63735;44.730;37.818;2022-12-31T06:11:43;11.70;82.31
75155;HTU21D;63735;44.730;37.818;2022-12-31T06:14:10;11.72;82.23
75155;HTU21D;63735;44.730;37.818;2022-12-31T06:16:36;11.71;82.07
75155;HTU21D;63735;44.730;37.818;2022-12-31T06:19:02;11.71;81.91
75155;HTU21D;63735;44.730;37.818;2022-12-31T06:21:28;11.72;81.72
75155;HTU21D;63735;44.730;37.818;2022-12-31T06:23:54;11.70;81.49
75155;HTU21D;63735;44.730;37.818;2022-12-31T06:26:20;11.71;81.33
75155;HTU21D;63735;44.730;37.818;2022-12-31T06:28:46;11.75;81.14
75155;HTU21D;63735;44.730;37.818;2022-12-31T06:31:13;11.78;80.95
75155;HTU21D;63735;44.730;37.818;2022-12-31T06:33:40;12.04;80.67
75155;HTU21D;63735;44.730;37.818;2022-12-31T06:36:09;12.16;79.98
75155;HTU21D;63735;44.730;37.818;2022-12-31T06:38:37;12.26;79.68
75155;HTU21D;63735;44.730;37.818;2022-12-31T06:41:06;12.41;79.54
75155;HTU21D;63735;44.730;37.818;2022-12-31T06:43:33;12.78;79.00
75155;HTU21D;63735;44.730;37.818;2022-12-31T06:46:10;13.18;78.14
75155;HTU21D;63735;44.730;37.818;2022-12-31T06:48:37;13.65;77.15
75155;HTU21D;63735;44.730;37.818;2022-12-31T06:51:11;13.80;76.58
75155;HTU21D;63735;44.730;37.818;2022-12-31T06:53:37;14.10;76.08
75155;HTU21D;63735;44.730;37.818;2022-12-31T06:58:32;14.22;75.61
75155;HTU21D;63735;44.730;37.818;2022-12-31T07:04:07;14.22;75.21
75155;HTU21D;63735;44.730;37.818;2022-12-31T07:06:44;13.96;74.98
75155;HTU21D;63735;44.730;37.818;2022-12-31T07:12:05;13.35;75.89
75155;HTU21D;63735;44.730;37.818;2022-12-31T07:14:40;13.12;76.31
75155;HTU21D;63735;44.730;37.818;2022-12-31T07:19:57;12.80;76.88
75155;HTU21D;63735;44.730;37.818;2022-12-31T07:22:25;12.70;77.16
75155;HTU21D;63735;44.730;37.818;2022-12-31T07:24:51;12.90;76.78
75155;HTU21D;63735;44.730;37.818;2022-12-31T07:40:03;13.12;75.60
75155;HTU21D;63735;44.730;37.818;2022-12-31T07:45:22;13.03;75.86
75155;HTU21D;63735;44.730;37.818;2022-12-31T07:47:49;12.97;75.61
75155;HTU21D;63735;44.730;37.818;2022-12-31T07:50:16;12.89;75.52
75155;HTU21D;63735;44.730;37.818;2022-12-31T07:52:43;12.80;75.73
75155;HTU21D;63735;44.730;37.818;2022-12-31T07:55:09;12.72;75.79
75155;HTU21D;63735;44.730;37.818;2022-12-31T07:57:58;12.59;75.87
75155;HTU21D;63735;44.730;37.818;2022-12-31T08:00:26;12.57;75.90
75155;HTU21D;63735;44.730;37.818;2022-12-31T08:03:36;12.55;75.99
75155;HTU21D;63735;44.730;37.818;2022-12-31T08:06:11;12.52;75.86
75155;HTU21D;63735;44.730;37.818;2022-12-31T08:11:40;12.52;75.79
75155;HTU21D;63735;44.730;37.818;2022-12-31T08:14:11;12.48;75.78
75155;HTU21D;63735;44.730;37.818;2022-12-31T08:16:38;12.50;75.86
75155;HTU21D;63735;44.730;37.818;2022-12-31T08:19:04;12.56;75.75
75155;HTU21D;63735;44.730;37.818;2022-12-31T08:27:17;12.62;75.50
75155;HTU21D;63735;44.730;37.818;2022-12-31T08:30:11;12.59;75.61
75155;HTU21D;63735;44.730;37.818;2022-12-31T08:33:02;12.67;75.66
75155;HTU21D;63735;44.730;37.818;2022-12-31T08:36:08;12.72;75.44
75155;HTU21D;63735;44.730;37.818;2022-12-31T08:39:09;12.69;75.26
75155;HTU21D;63735;44.730;37.818;2022-12-31T08:41:42;12.69;75.07
75155;HTU21D;63735;44.730;37.818;2022-12-31T08:49:44;12.84;75.09
75155;HTU21D;63735;44.730;37.818;2022-12-31T08:52:22;12.90;74.92
75155;HTU21D;63735;44.730;37.818;2022-12-31T08:54:49;12.81;75.06
75155;HTU21D;63735;44.730;37.818;2022-12-31T09:00:25;12.82;75.14
75155;HTU21D;63735;44.730;37.818;2022-12-31T09:05:35;12.94;74.45
75155;HTU21D;63735;44.730;37.818;2022-12-31T09:18:48;12.74;74.56
75155;HTU21D;63735;44.730;37.818;2022-12-31T09:21:15;12.66;74.65
75155;HTU21D;63735;44.730;37.818;2022-12-31T09:23:42;12.66;74.80
75155;HTU21D;63735;44.730;37.818;2022-12-31T09:31:39;12.59;75.10
75155;HTU21D;63735;44.730;37.818;2022-12-31T09:34:34;12.55;75.25
75155;HTU21D;63735;44.730;37.818;2022-12-31T09:37:50;12.51;75.34
75155;HTU21D;63735;44.730;37.818;2022-12-31T09:39:50;12.51;75.42
75155;HTU21D;63735;44.730;37.818;2022-12-31T09:42:50;12.53;75.35
75155;HTU21D;63735;44.730;37.818;2022-12-31T09:51:06;12.64;75.34
75155;HTU21D;63735;44.730;37.818;2022-12-31T09:56:24;12.63;75.35
75155;HTU21D;63735;44.730;37.818;2022-12-31T09:59:05;12.66;75.38
75155;HTU21D;63735;44.730;37.818;2022-12-31T10:04:37;12.69;75.34
75155;HTU21D;63735;44.730;37.818;2022-12-31T10:10:23;12.60;75.67
75155;HTU21D;63735;44.730;37.818;2022-12-31T10:27:50;12.49;75.61
75155;HTU21D;63735;44.730;37.818;2022-12-31T10:30:21;12.53;75.57
75155;HTU21D;63735;44.730;37.818;2022-12-31T10:33:07;12.57;75.56
75155;HTU21D;63735;44.730;37.818;2022-12-31T10:36:07;12.56;75.55
75155;HTU21D;63735;44.730;37.818;2022-12-31T11:09:53;12.33;75.88
75155;HTU21D;63735;44.730;37.818;2022-12-31T11:15:01;12.40;75.79
75155;HTU21D;63735;44.730;37.818;2022-12-31T11:28:48;12.35;75.92
75155;HTU21D;63735;44.730;37.818;2022-12-31T11:37:17;12.35;75.88
75155;HTU21D;63735;44.730;37.818;2022-12-31T11:48:39;12.30;75.83
75155;HTU21D;63735;44.730;37.818;2022-12-31T11:54:30;12.29;75.86
75155;HTU21D;63735;44.730;37.818;2022-12-31T11:57:42;12.26;75.94
75155;HTU21D;63735;44.730;37.818;2022-12-31T11:59:43;12.23;76.05
75155;HTU21D;63735;44.730;37.818;2022-12-31T12:02:33;12.22;76.16
75155;HTU21D;63735;44.730;37.818;2022-12-31T12:05:02;12.21;76.21
75155;HTU21D;63735;44.730;37.818;2022-12-31T12:07:30;12.22;76.24
75155;HTU21D;63735;44.730;37.818;2022-12-31T12:09:57;12.21;76.29
75155;HTU21D;63735;44.730;37.818;2022-12-31T12:12:23;12.22;76.35
75155;HTU21D;63735;44.730;37.818;2022-12-31T12:14:52;12.22;76.41
75155;HTU21D;63735;44.730;37.818;2022-12-31T12:17:28;12.22;76.41
75155;HTU21D;63735;44.730;37.818;2022-12-31T12:20:09;12.22;76.36
75155;HTU21D;63735;44.730;37.818;2022-12-31T12:22:52;12.25;76.32
75155;HTU21D;63735;44.730;37.818;2022-12-31T12:25:21;12.27;76.22
75155;HTU21D;63735;44.730;37.818;2022-12-31T12:27:48;12.30;76.15
75155;HTU21D;63735;44.730;37.818;2022-12-31T12:30:22;12.30;76.17
75155;HTU21D;63735;44.730;37.818;2022-12-31T12:32:59;12.33;76.15
75155;HTU21D;63735;44.730;37.818;2022-12-31T12:35:29;12.30;76.09
75155;HTU21D;63735;44.730;37.818;2022-12-31T12:38:14;12.27;76.17
75155;HTU21D;63735;44.730;37.818;2022-12-31T12:40:40;12.26;76.18
75155;HTU21D;63735;44.730;37.818;2022-12-31T12:43:20;12.21;76.33
75155;HTU21D;63735;44.730;37.818;2022-12-31T12:45:47;12.14;76.50
75155;HTU21D;63735;44.730;37.818;2022-12-31T12:48:20;12.11;76.70
75155;HTU21D;63735;44.730;37.818;2022-12-31T12:50:50;12.11;76.70
75155;HTU21D;63735;44.730;37.818;2022-12-31T12:58:53;12.13;76.69
75155;HTU21D;63735;44.730;37.818;2022-12-31T13:04:14;12.13;76.67
75155;HTU21D;63735;44.730;37.818;2022-12-31T13:10:00;12.10;76.89
75155;HTU21D;63735;44.730;37.818;2022-12-31T13:12:39;12.05;77.02
75155;HTU21D;63735;44.730;37.818;2022-12-31T13:15:14;12.04;77.05
75155;HTU21D;63735;44.730;37.818;2022-12-31T13:18:19;11.98;77.24
75155;HTU21D;63735;44.730;37.818;2022-12-31T13:23:50;11.92;77.31
75155;HTU21D;63735;44.730;37.818;2022-12-31T13:26:51;11.92;77.34
75155;HTU21D;63735;44.730;37.818;2022-12-31T13:29:24;11.93;77.26
75155;HTU21D;63735;44.730;37.818;2022-12-31T13:31:51;11.92;77.35
75155;HTU21D;63735;44.730;37.818;2022-12-31T13:34:28;11.91;77.34
75155;HTU21D;63735;44.730;37.818;2022-12-31T13:36:59;11.92;77.37
75155;HTU21D;63735;44.730;37.818;2022-12-31T13:39:38;11.93;77.35
75155;HTU21D;63735;44.730;37.818;2022-12-31T13:42:19;11.91;77.44
75155;HTU21D;63735;44.730;37.818;2022-12-31T13:45:04;11.89;77.63
75155;HTU21D;63735;44.730;37.818;2022-12-31T13:48:05;11.90;77.64
75155;HTU21D;63735;44.730;37.818;2022-12-31T13:51:04;11.91;77.62
75155;HTU21D;63735;44.730;37.818;2022-12-31T13:53:39;11.88;77.56
75155;HTU21D;63735;44.730;37.818;2022-12-31T13:56:13;11.85;77.76
75155;HTU21D;63735;44.730;37.818;2022-12-31T14:01:33;11.77;78.06
75155;HTU21D;63735;44.730;37.818;2022-12-31T14:09:32;11.70;78.24
75155;HTU21D;63735;44.730;37.818;2022-12-31T14:14:45;11.67;78.27
75155;HTU21D;63735;44.730;37.818;2022-12-31T14:20:07;11.64;78.24
75155;HTU21D;63735;44.730;37.818;2022-12-31T14:22:57;11.63;78.34
75155;HTU21D;63735;44.730;37.818;2022-12-31T14:25:43;11.61;78.45
75155;HTU21D;63735;44.730;37.818;2022-12-31T14:28:20;11.59;78.50
75155;HTU21D;63735;44.730;37.818;2022-12-31T14:34:47;11.59;78.81
75155;HTU21D;63735;44.730;37.818;2022-12-31T14:37:10;11.58;78.83
75155;HTU21D;63735;44.730;37.818;2022-12-31T14:45:44;11.60;78.72
75155;HTU21D;63735;44.730;37.818;2022-12-31T14:51:34;11.58;78.69
75155;HTU21D;63735;44.730;37.818;2022-12-31T14:54:01;11.57;78.68
75155;HTU21D;63735;44.730;37.818;2022-12-31T14:56:40;11.54;78.71
75155;HTU21D;63735;44.730;37.818;2022-12-31T14:59:26;11.52;78.69
75155;HTU21D;63735;44.730;37.818;2022-12-31T15:01:53;11.47;78.71
75155;HTU21D;63735;44.730;37.818;2022-12-31T15:04:41;11.42;78.81
75155;HTU21D;63735;44.730;37.818;2022-12-31T15:07:39;11.41;78.88
75155;HTU21D;63735;44.730;37.818;2022-12-31T15:24:00;11.36;78.79
75155;HTU21D;63735;44.730;37.818;2022-12-31T15:26:30;11.33;78.79
75155;HTU21D;63735;44.730;37.818;2022-12-31T15:29:02;11.34;78.86
75155;HTU21D;63735;44.730;37.818;2022-12-31T15:31:30;11.34;78.84
75155;HTU21D;63735;44.730;37.818;2022-12-31T15:34:02;11.36;78.87
75155;HTU21D;63735;44.730;37.818;2022-12-31T15:36:36;11.34;78.88
75155;HTU21D;63735;44.730;37.818;2022-12-31T15:39:34;11.36;78.97
75155;HTU21D;63735;44.730;37.818;2022-12-31T15:42:01;11.33;78.98
75155;HTU21D;63735;44.730;37.818;2022-12-31T15:45:02;11.37;79.11
75155;HTU21D;63735;44.730;37.818;2022-12-31T15:47:29;11.36;79.19
75155;HTU21D;63735;44.730;37.818;2022-12-31T15:50:03;11.36;79.24
75155;HTU21D;63735;44.730;37.818;2022-12-31T15:52:40;11.38;79.24
75155;HTU21D;63735;44.730;37.818;2022-12-31T15:55:07;11.40;79.21
75155;HTU21D;63735;44.730;37.818;2022-12-31T15:57:40;11.41;79.19
75155;HTU21D;63735;44.730;37.818;2022-12-31T16:00:19;11.44;79.17
75155;HTU21D;63735;44.730;37.818;2022-12-31T16:02:47;11.44;79.14
75155;HTU21D;63735;44.730;37.818;2022-12-31T16:05:21;11.46;79.13
75155;HTU21D;63735;44.730;37.818;2022-12-31T16:07:51;11.45;79.15
75155;HTU21D;63735;44.730;37.818;2022-12-31T16:10:23;11.46;79.11
75155;HTU21D;63735;44.730;37.818;2022-12-31T16:12:49;11.47;79.10
75155;HTU21D;63735;44.730;37.818;2022-12-31T16:15:22;11.47;79.08
75155;HTU21D;63735;44.730;37.818;2022-12-31T16:18:08;11.48;79.04
75155;HTU21D;63735;44.730;37.818;2022-12-31T16:20:41;11.52;78.96
75155;HTU21D;63735;44.730;37.818;2022-12-31T16:23:23;11.52;79.01
75155;HTU21D;63735;44.730;37.818;2022-12-31T16:25:50;11.52;79.06
75155;HTU21D;63735;44.730;37.818;2022-12-31T16:28:22;11.47;79.08
75155;HTU21D;63735;44.730;37.818;2022-12-31T16:31:05;11.47;79.04
75155;HTU21D;63735;44.730;37.818;2022-12-31T16:33:31;11.47;78.95
75155;HTU21D;63735;44.730;37.818;2022-12-31T16:35:59;11.49;78.89
75155;HTU21D;63735;44.730;37.818;2022-12-31T16:38:34;11.51;78.90
75155;HTU21D;63735;44.730;37.818;2022-12-31T16:48:48;11.53;79.00
75155;HTU21D;63735;44.730;37.818;2022-12-31T16:51:19;11.51;79.06
75155;HTU21D;63735;44.730;37.818;2022-12-31T16:53:47;11.48;79.17
75155;HTU21D;63735;44.730;37.818;2022-12-31T16:56:21;11.46;79.22
75155;HTU21D;63735;44.730;37.818;2022-12-31T16:58:49;11.48;79.24
75155;HTU21D;63735;44.730;37.818;2022-12-31T17:01:27;11.46;79.37
75155;HTU21D;63735;44.730;37.818;2022-12-31T17:03:57;11.45;79.46
75155;HTU21D;63735;44.730;37.818;2022-12-31T17:06:24;11.44;79.57
75155;HTU21D;63735;44.730;37.818;2022-12-31T17:11:41;11.39;79.75
75155;HTU21D;63735;44.730;37.818;2022-12-31T17:16:36;11.41;79.57
75155;HTU21D;63735;44.730;37.818;2022-12-31T17:19:03;11.41;79.56
75155;HTU21D;63735;44.730;37.818;2022-12-31T17:21:30;11.40;79.59
75155;HTU21D;63735;44.730;37.818;2022-12-31T17:24:00;11.40;79.57
75155;HTU21D;63735;44.730;37.818;2022-12-31T17:26:30;11.40;79.56
75155;HTU21D;63735;44.730;37.818;2022-12-31T17:28:59;11.41;79.55
75155;HTU21D;63735;44.730;37.818;2022-12-31T17:36:56;11.45;79.43
75155;HTU21D;63735;44.730;37.818;2022-12-31T17:39:23;11.46;79.32
75155;HTU21D;63735;44.730;37.818;2022-12-31T17:41:51;11.47;79.26
75155;HTU21D;63735;44.730;37.818;2022-12-31T17:44:19;11.52;79.16
75155;HTU21D;63735;44.730;37.818;2022-12-31T17:46:46;11.47;79.17
75155;HTU21D;63735;44.730;37.818;2022-12-31T17:49:12;11.45;79.21
75155;HTU21D;63735;44.730;37.818;2022-12-31T17:51:39;11.43;79.19
75155;HTU21D;63735;44.730;37.818;2022-12-31T17:54:12;11.43;79.14
75155;HTU21D;63735;44.730;37.818;2022-12-31T17:56:39;11.44;79.03
75155;HTU21D;63735;44.730;37.818;2022-12-31T17:59:06;11.45;78.82
75155;HTU21D;63735;44.730;37.818;2022-12-31T18:01:32;11.46;78.62
75155;HTU21D;63735;44.730;37.818;2022-12-31T18:03:58;11.43;78.30
75155;HTU21D;63735;44.730;37.818;2022-12-31T18:06:24;11.45;78.35
75155;HTU21D;63735;44.730;37.818;2022-12-31T18:08:51;11.44;78.50
75155;HTU21D;63735;44.730;37.818;2022-12-31T18:11:20;11.43;78.58
75155;HTU21D;63735;44.730;37.818;2022-12-31T18:13:47;11.43;78.58
75155;HTU21D;63735;44.730;37.818;2022-12-31T18:16:14;11.43;78.59
75155;HTU21D;63735;44.730;37.818;2022-12-31T18:18:40;11.42;78.57
75155;HTU21D;63735;44.730;37.818;2022-12-31T18:21:16;11.41;78.57
75155;HTU21D;63735;44.730;37.818;2022-12-31T18:23:44;11.39;78.66
75155;HTU21D;63735;44.730;37.818;2022-12-31T18:26:13;11.38;78.69
75155;HTU21D;63735;44.730;37.818;2022-12-31T18:28:39;11.39;78.69
75155;HTU21D;63735;44.730;37.818;2022-12-31T18:31:05;11.39;78.69
75155;HTU21D;63735;44.730;37.818;2022-12-31T18:33:31;11.40;78.74
75155;HTU21D;63735;44.730;37.818;2022-12-31T18:35:57;11.43;78.76
75155;HTU21D;63735;44.730;37.818;2022-12-31T18:38:23;11.42;78.78
75155;HTU21D;63735;44.730;37.818;2022-12-31T18:40:58;11.41;78.84
75155;HTU21D;63735;44.730;37.818;2022-12-31T18:43:24;11.40;78.84
75155;HTU21D;63735;44.730;37.818;2022-12-31T18:45:51;11.40;78.85
75155;HTU21D;63735;44.730;37.818;2022-12-31T18:48:18;11.40;78.72
75155;HTU21D;63735;44.730;37.818;2022-12-31T18:50:44;11.42;78.36
75155;HTU21D;63735;44.730;37.818;2022-12-31T18:53:20;11.44;77.79
75155;HTU21D;63735;44.730;37.818;2022-12-31T18:55:52;11.45;77.59
75155;HTU21D;63735;44.730;37.818;2022-12-31T18:58:19;11.48;77.56
75155;HTU21D;63735;44.730;37.818;2022-12-31T19:00:45;11.48;77.58
75155;HTU21D;63735;44.730;37.818;2022-12-31T19:03:14;11.49;77.61
75155;HTU21D;63735;44.730;37.818;2022-12-31T19:05:41;11.48;77.70
75155;HTU21D;63735;44.730;37.818;2022-12-31T19:08:07;11.44;77.99
75155;HTU21D;63735;44.730;37.818;2022-12-31T19:10:33;11.44;78.04
75155;HTU21D;63735;44.730;37.818;2022-12-31T19:12:59;11.43;78.08
75155;HTU21D;63735;44.730;37.818;2022-12-31T19:15:29;11.42;78.16
75155;HTU21D;63735;44.730;37.818;2022-12-31T19:18:01;11.46;78.14
75155;HTU21D;63735;44.730;37.818;2022-12-31T19:20:28;11.46;78.24
75155;HTU21D;63735;44.730;37.818;2022-12-31T19:22:55;11.45;78.29
75155;HTU21D;63735;44.730;37.818;2022-12-31T19:25:25;11.47;78.37
75155;HTU21D;63735;44.730;37.818;2022-12-31T19:27:51;11.47;78.42
75155;HTU21D;63735;44.730;37.818;2022-12-31T19:30:23;11.47;78.53
75155;HTU21D;63735;44.730;37.818;2022-12-31T19:32:49;11.46;78.59
75155;HTU21D;63735;44.730;37.818;2022-12-31T19:35:16;11.45;78.71